Etusivu
METAR-TAF:

METAR-TAF

Lentoasemat :

Hobart, Oklahoma, Yhdysvallat

Leveyspiiri: 34-59-22N, Pituuspiiri: 099-03-09W, korkeus merenpinnasta: 476 m

Tämänhetkinen sää

Tämä raportti tehtiin 17 minuuttia sitten, kello 05.53 UTC
Tuuli 11 kn etelästä
Lämpötila 25°C
Kosteus 69%
Ilmanpaine 1016 hPa
Näkyvyys: 16.1 km
selkeää

METAR: KHBR 030553Z AUTO 18011KT 10SM CLR 25/19 A3001 RMK AO2 SLP142 T02500189 10328 20244 403440194 50002

Aika: 01:10 (06:10 UTC)


TAF: puuttuu

Säähavainnot ja -ennusteet yli 4000 lentoasemalta (METAR- ja TAF-raportit).

Käytössä olevat sääasemat on merkitty karttaan keltaisilla ja punaisilla pisteillä.

Aseta hiiri pisteen päälle nähdäksesi sääaseman nimen.

Klikkaa sitten nähdäksesi säähavainnot ja -ennusteet.

Kartan vaihtaminen: klikkaa mustalla rastilla varustettuja vihreitä pisteitä, niin voit zoomata sisään; viivalla varustettua vihreää pistettä, niin voit zoomata ulos tai vihreitä nuolia, niin pääset viereisille kartoille.


METAR-TAF: